Time;durP1;ratioP1;P1;durP2;ratioP2;P2;SDS_P1;SDS_P2;PMS_P1;PMS_P2;Temp;Humidity;BMP_temperature;BMP_pressure;BME280_temperature;BME280_humidity;BME280_pressure;Samples;Min_cycle;Max_cycle;Signal;HPM_P1;HPM_P2
2022/05/26 00:02:27;;;;;;;4.82;2.05;;;;;;;13.58;84.59;101563.38;5116010;28;20036;-86
2022/05/26 00:04:53;;;;;;;5.60;2.60;;;;;;;13.55;85.07;101570.09;5097807;28;20072;-86
2022/05/26 00:07:21;;;;;;;4.43;2.28;;;;;;;13.61;84.92;101576.56;5114085;28;20031;-85
2022/05/26 00:09:46;;;;;;;6.00;2.57;;;;;;;13.55;85.12;101581.00;5114555;28;20031;-85
2022/05/26 00:12:13;;;;;;;5.38;2.20;;;;;;;13.47;85.37;101564.91;5114350;28;20440;-85
2022/05/26 00:14:41;;;;;;;3.50;2.30;;;;;;;13.51;85.50;101572.44;5115944;28;20077;-85
2022/05/26 00:17:09;;;;;;;5.97;2.45;;;;;;;13.51;85.97;101568.88;5114431;28;20032;-86
2022/05/26 00:19:42;;;;;;;6.28;2.50;;;;;;;13.56;85.94;101587.31;5114715;28;20044;-86
2022/05/26 00:22:20;;;;;;;4.75;2.60;;;;;;;13.52;85.79;101567.81;5114372;28;20047;-87
2022/05/26 00:24:47;;;;;;;6.90;2.80;;;;;;;13.56;85.60;101581.84;5115410;28;20379;-85
2022/05/26 00:27:18;;;;;;;5.90;2.70;;;;;;;13.53;85.56;101580.38;5097669;28;20394;-86
2022/05/26 00:29:50;;;;;;;7.00;3.55;;;;;;;13.51;86.37;101571.59;5114067;28;20020;-86
2022/05/26 00:32:18;;;;;;;9.10;2.90;;;;;;;13.60;86.35;101585.81;5115521;28;20089;-86
2022/05/26 00:34:53;;;;;;;9.52;3.22;;;;;;;13.57;86.16;101588.94;5113984;28;20034;-86
2022/05/26 00:37:19;;;;;;;8.05;2.80;;;;;;;13.53;86.15;101579.56;5114802;28;20059;-86
2022/05/26 00:39:57;;;;;;;;;;;;;;;;;;;;;
2022/05/26 00:42:25;;;;;;;10.73;2.95;;;;;;;13.63;86.26;101601.75;5115213;28;20027;-86
2022/05/26 00:44:55;;;;;;;9.80;3.50;;;;;;;13.60;86.58;101592.09;5097361;28;20035;-86
2022/05/26 00:47:29;;;;;;;4.97;2.60;;;;;;;13.63;86.41;101597.13;5097284;28;20027;-86
2022/05/26 00:50:03;;;;;;;7.97;2.95;;;;;;;13.57;86.09;101584.34;5114163;28;20039;-86
2022/05/26 00:52:35;;;;;;;8.48;2.90;;;;;;;13.66;86.38;101598.56;5113501;28;20032;-86
2022/05/26 00:55:10;;;;;;;7.88;3.20;;;;;;;13.57;86.47;101583.50;5113463;28;20073;-86
2022/05/26 00:57:50;;;;;;;7.72;2.85;;;;;;;13.55;86.51;101580.16;5115057;28;20110;-86
2022/05/26 01:00:21;;;;;;;10.40;3.63;;;;;;;13.58;86.74;101593.34;5114843;28;20024;-86
2022/05/26 01:03:08;;;;;;;10.40;3.20;;;;;;;13.64;86.37;101597.94;5113658;28;20111;-86
2022/05/26 01:05:51;;;;;;;10.90;3.40;;;;;;;13.62;86.57;101597.34;5113561;28;20052;-86
2022/05/26 01:08:25;;;;;;;12.40;3.25;;;;;;;13.61;86.71;101591.06;5114445;28;20036;-85
2022/05/26 01:10:53;;;;;;;10.10;3.05;;;;;;;13.64;86.83;101606.13;5114641;28;20495;-86
2022/05/26 01:13:21;;;;;;;12.93;3.60;;;;;;;13.62;86.77;101602.78;5113659;28;20042;-86
2022/05/26 01:15:57;;;;;;;11.18;3.20;;;;;;;13.63;86.76;101604.47;5113036;28;20429;-86
2022/05/26 01:19:01;;;;;;;10.23;3.45;;;;;;;13.65;86.82;101613.25;5113079;28;20076;-86
2022/05/26 01:21:39;;;;;;;9.10;3.40;;;;;;;13.68;86.83;101612.81;5113634;28;20118;-86
2022/05/26 01:24:36;;;;;;;11.00;3.80;;;;;;;13.64;86.80;101606.97;5113212;28;20039;-86
2022/05/26 01:27:21;;;;;;;9.43;3.70;;;;;;;13.65;86.92;101599.63;5092811;28;20056;-86
2022/05/26 01:30:09;;;;;;;18.20;3.85;;;;;;;13.67;87.04;101614.72;5112982;28;20110;-86
2022/05/26 01:32:50;;;;;;;10.18;4.55;;;;;;;13.69;86.96;101614.50;5099806;28;20109;-86
2022/05/26 01:35:38;;;;;;;9.55;4.60;;;;;;;13.66;86.65;101614.94;5114083;28;20479;-86
2022/05/26 01:38:16;;;;;;;13.40;4.35;;;;;;;13.67;86.95;101605.69;5112108;28;20056;-86
2022/05/26 01:41:04;;;;;;;7.17;4.30;;;;;;;13.69;87.19;101607.16;5114028;28;20043;-86
2022/05/26 01:43:44;;;;;;;13.52;4.60;;;;;;;13.71;87.11;101606.94;5112851;28;20028;-86
2022/05/26 01:46:29;;;;;;;12.88;5.00;;;;;;;13.73;86.79;101612.16;5112857;28;20035;-86
2022/05/26 01:49:32;;;;;;;12.27;5.25;;;;;;;13.70;86.95;101632.53;5114188;28;20027;-87
2022/05/26 01:52:19;;;;;;;13.27;5.18;;;;;;;13.71;87.07;101630.66;5113010;28;20036;-86
2022/05/26 01:55:06;;;;;;;16.10;5.23;;;;;;;13.67;87.62;101619.31;5112784;28;20356;-86
2022/05/26 01:57:43;;;;;;;10.95;5.07;;;;;;;13.68;87.34;101635.50;5112701;28;20058;-86
2022/05/26 02:00:15;;;;;;;13.02;5.45;;;;;;;13.60;87.60;101618.53;5112659;28;20032;-86
2022/05/26 02:02:58;;;;;;;11.18;5.65;;;;;;;13.61;87.68;101620.19;5112906;28;20145;-86
2022/05/26 02:05:28;;;;;;;14.55;6.30;;;;;;;13.63;87.56;101624.38;5113843;28;20468;-86
2022/05/26 02:08:01;;;;;;;14.13;6.57;;;;;;;13.60;87.71;101624.81;5111939;28;20032;-86
2022/05/26 02:10:51;;;;;;;13.57;6.75;;;;;;;13.61;87.79;101639.28;5112364;28;20055;-86
2022/05/26 02:13:28;;;;;;;20.63;7.35;;;;;;;13.68;87.39;101642.81;5113990;28;20042;-86
2022/05/26 02:16:11;;;;;;;14.00;6.80;;;;;;;13.62;87.54;101632.78;5112542;28;20476;-86
2022/05/26 02:19:03;;;;;;;15.48;7.25;;;;;;;13.61;87.60;101631.09;5112837;28;20543;-86
2022/05/26 02:21:53;;;;;;;16.97;7.03;;;;;;;13.64;87.44;101636.13;5112527;28;20035;-86
2022/05/26 02:24:27;;;;;;;16.08;7.13;;;;;;;13.67;87.81;101661.06;5113691;28;20046;-86
2022/05/26 02:26:57;;;;;;;16.25;6.78;;;;;;;13.65;87.68;101654.16;5113145;28;20430;-86
2022/05/26 02:32:13;;;;;;;18.55;7.55;;;;;;;13.59;88.07;101641.41;5117995;28;20039;-86
2022/05/26 02:34:41;;;;;;;20.40;7.83;;;;;;;13.56;88.19;101644.56;5116917;28;20078;-86
2022/05/26 02:37:09;;;;;;;22.40;8.10;;;;;;;13.65;88.37;101662.34;5115512;28;20113;-86
2022/05/26 02:39:39;;;;;;;16.80;7.63;;;;;;;13.60;87.99;101660.25;5116124;28;20042;-86
2022/05/26 02:42:09;;;;;;;17.27;7.18;;;;;;;13.59;88.09;101664.03;5099720;28;20089;-86
2022/05/26 02:44:45;;;;;;;18.00;7.60;;;;;;;13.58;88.37;101658.81;5116244;28;20023;-86
2022/05/26 02:47:41;;;;;;;15.00;6.93;;;;;;;13.54;88.23;101663.84;5101187;28;20464;-86
2022/05/26 02:50:18;;;;;;;21.83;7.43;;;;;;;13.61;88.29;101666.53;5117458;28;20023;-86
2022/05/26 02:53:25;;;;;;;18.55;7.55;;;;;;;13.55;88.56;101667.41;5117495;28;20035;-86
2022/05/26 02:56:27;;;;;;;15.40;7.10;;;;;;;13.61;88.22;101672.84;5115901;28;20050;-86
2022/05/26 02:59:01;;;;;;;18.63;7.30;;;;;;;13.61;88.07;101672.00;5116220;28;20471;-86
2022/05/26 03:01:46;;;;;;;19.57;8.33;;;;;;;13.55;88.46;101679.13;5115880;28;20032;-86
2022/05/26 03:04:19;;;;;;;19.40;8.20;;;;;;;13.54;88.43;101672.03;5115926;28;20073;-87
2022/05/26 03:06:54;;;;;;;21.95;8.75;;;;;;;13.46;88.50;101658.63;5115835;28;20115;-87
2022/05/26 03:09:35;;;;;;;23.35;8.18;;;;;;;13.48;88.38;101673.72;5115217;28;20118;-86
2022/05/26 03:12:19;;;;;;;20.80;8.02;;;;;;;13.43;88.62;101659.88;5115761;28;20535;-87
2022/05/26 03:14:48;;;;;;;20.30;8.40;;;;;;;13.41;89.07;101663.91;5116074;28;20422;-87
2022/05/26 03:17:14;;;;;;;23.40;8.45;;;;;;;13.41;88.79;101661.19;5115623;28;20066;-87
2022/05/26 03:19:43;;;;;;;23.57;8.97;;;;;;;13.37;89.21;101660.75;5098277;28;20055;-87
2022/05/26 03:22:12;;;;;;;21.60;8.02;;;;;;;13.47;89.01;101677.50;5115180;28;20119;-87
2022/05/26 03:24:37;;;;;;;24.40;8.82;;;;;;;13.37;89.26;101676.28;5115518;28;20030;-88
2022/05/26 03:27:06;;;;;;;23.43;8.50;;;;;;;13.32;89.43;101674.16;5116618;28;20106;-87
2022/05/26 03:29:32;;;;;;;20.05;8.00;;;;;;;13.40;89.28;101687.59;5098805;28;20027;-87
2022/05/26 03:31:57;;;;;;;26.05;9.05;;;;;;;13.41;89.44;101693.88;5116445;28;20475;-87
2022/05/26 03:42:48;;;;;;;29.80;8.57;;;;;;;13.30;89.88;101698.91;5115848;28;20120;-87
2022/05/26 03:45:20;;;;;;;24.37;7.93;;;;;;;13.33;89.70;101709.38;5115279;28;20542;-87
2022/05/26 03:47:48;;;;;;;23.67;6.85;;;;;;;13.31;89.47;101706.00;5115160;28;20505;-88
2022/05/26 03:50:19;;;;;;;24.23;7.65;;;;;;;13.21;90.25;101694.72;5116239;28;20032;-87
2022/05/26 03:52:55;;;;;;;28.08;7.88;;;;;;;13.22;90.31;101695.56;5116257;28;20077;-87
2022/05/26 03:55:34;;;;;;;22.70;7.00;;;;;;;13.23;89.92;101708.13;5114902;28;20032;-87
2022/05/26 03:58:20;;;;;;;26.37;7.67;;;;;;;13.12;90.50;101694.13;5114821;28;20023;-87
2022/05/26 04:00:48;;;;;;;22.92;7.20;;;;;;;13.08;90.58;101702.91;5115878;28;20023;-87
2022/05/26 04:03:15;;;;;;;23.45;7.15;;;;;;;13.01;91.04;101704.78;5098132;28;20047;-87
2022/05/26 04:05:46;;;;;;;21.92;7.03;;;;;;;13.01;91.45;101715.69;5114804;28;20028;-87
2022/05/26 04:08:22;;;;;;;22.17;6.97;;;;;;;12.91;91.09;101713.41;5114091;28;20039;-87
2022/05/26 04:11:13;;;;;;;25.43;6.60;;;;;;;12.92;91.08;101710.47;5116255;27;20027;-87
2022/05/26 04:13:42;;;;;;;23.95;7.43;;;;;;;12.90;91.54;101706.28;5114789;28;20032;-87
2022/05/26 04:16:31;;;;;;;21.40;6.82;;;;;;;12.94;91.98;101719.25;5114704;28;20020;-87
2022/05/26 04:18:59;;;;;;;22.98;6.63;;;;;;;12.93;91.67;101722.19;5100011;28;20500;-87
2022/05/26 04:21:24;;;;;;;25.90;7.13;;;;;;;12.93;91.64;101731.22;5115518;28;20028;-87
2022/05/26 04:23:52;;;;;;;24.20;7.07;;;;;;;12.95;91.61;101718.22;5114330;28;20024;-85
2022/05/26 04:26:20;;;;;;;26.45;7.03;;;;;;;13.04;91.33;101735.19;5114304;28;20031;-87
2022/05/26 04:28:50;;;;;;;28.52;6.80;;;;;;;13.06;91.25;101732.25;5114095;28;20037;-86
2022/05/26 04:31:16;;;;;;;25.07;7.43;;;;;;;13.01;91.24;101732.03;5115587;28;20101;-87
2022/05/26 04:33:46;;;;;;;25.73;6.47;;;;;;;13.03;91.28;101735.41;5096186;28;20078;-87
2022/05/26 04:36:17;;;;;;;23.40;6.27;;;;;;;13.05;91.04;101728.72;5114229;28;20055;-87
2022/05/26 04:38:45;;;;;;;20.27;6.07;;;;;;;13.08;91.23;101736.47;5113529;28;20035;-87
2022/05/26 04:41:14;;;;;;;24.13;6.00;;;;;;;13.09;91.14;101734.56;5097115;28;20039;-87
2022/05/26 04:43:45;;;;;;;27.45;6.50;;;;;;;13.04;91.08;101743.38;5113589;28;20024;-86
2022/05/26 04:46:17;;;;;;;21.23;6.20;;;;;;;13.04;90.83;101737.09;5113968;28;20031;-88
2022/05/26 04:48:47;;;;;;;20.77;6.13;;;;;;;13.12;91.41;101754.06;5115116;28;20055;-87
2022/05/26 04:51:18;;;;;;;31.65;6.97;;;;;;;13.06;91.33;101752.16;5096864;28;20554;-87
2022/05/26 04:53:47;;;;;;;30.00;7.40;;;;;;;13.03;91.13;101752.56;5112554;28;20042;-87
2022/05/26 04:56:15;;;;;;;20.20;6.00;;;;;;;13.06;91.36;101754.06;5113408;28;20479;-87
2022/05/26 04:58:48;;;;;;;30.38;6.55;;;;;;;13.11;91.00;101751.53;5113376;28;20053;-88
2022/05/26 05:01:19;;;;;;;24.97;6.47;;;;;;;13.13;91.12;101765.78;5097264;28;20040;-87
2022/05/26 05:03:46;;;;;;;25.90;7.00;;;;;;;13.23;90.51;101765.34;5113746;28;20020;-87
2022/05/26 05:06:16;;;;;;;23.73;6.70;;;;;;;13.28;90.54;101780.03;5113352;28;20027;-87
2022/05/26 05:08:45;;;;;;;26.08;6.50;;;;;;;13.28;90.19;101777.31;5112859;28;20081;-88
2022/05/26 05:11:16;;;;;;;22.67;5.90;;;;;;;13.32;89.96;101773.13;5114573;28;20499;-87
2022/05/26 05:13:41;;;;;;;19.97;6.37;;;;;;;13.36;89.75;101778.16;5113596;28;20421;-87
2022/05/26 05:16:23;;;;;;;26.15;6.70;;;;;;;13.42;89.46;101782.78;5113176;28;20051;-87
2022/05/26 05:19:08;;;;;;;24.00;6.20;;;;;;;13.43;89.67;101779.00;5113197;28;20031;-87
2022/05/26 05:21:44;;;;;;;26.17;6.83;;;;;;;13.51;88.97;101795.16;5114330;28;20141;-87
2022/05/26 05:24:48;;;;;;;25.52;6.40;;;;;;;13.51;89.09;101787.81;5112918;28;20043;-87
2022/05/26 05:27:26;;;;;;;29.98;5.95;;;;;;;13.63;89.08;101798.91;5110142;28;20556;-86
2022/05/26 05:30:00;;;;;;;23.30;6.13;;;;;;;13.63;88.46;101809.81;5112441;28;20487;-85
2022/05/26 05:32:31;;;;;;;25.08;6.82;;;;;;;13.63;88.40;101798.06;5114269;28;20055;-85
2022/05/26 05:35:06;;;;;;;22.90;6.23;;;;;;;13.71;88.31;101806.00;5112329;28;20023;-86
2022/05/26 05:37:33;;;;;;;26.48;6.72;;;;;;;13.77;87.63;101807.88;5111377;28;20051;-85
2022/05/26 05:40:02;;;;;;;28.17;7.18;;;;;;;13.84;88.04;101807.88;5113603;28;20061;-86
2022/05/26 05:42:29;;;;;;;20.42;6.63;;;;;;;13.81;87.36;101811.84;5114366;28;20468;-86
2022/05/26 05:44:54;;;;;;;22.80;6.68;;;;;;;13.86;87.10;101803.88;5114117;28;20031;-86
2022/05/26 05:47:35;;;;;;;21.87;6.43;;;;;;;13.83;87.31;101806.19;5112962;28;20050;-89
2022/05/26 05:50:13;;;;;;;;;;;;;;;;;;;;;
2022/05/26 05:52:43;;;;;;;29.83;7.35;;;;;;;13.81;87.56;101809.13;5114582;28;20030;-89
2022/05/26 05:55:09;;;;;;;28.70;6.87;;;;;;;13.86;87.52;101812.06;5112803;28;20027;-89
2022/05/26 05:57:37;;;;;;;24.02;6.82;;;;;;;13.93;87.49;101822.13;5112781;28;20474;-88
2022/05/26 06:00:07;;;;;;;19.48;6.50;;;;;;;13.93;87.64;101813.94;5112630;28;20067;-87
2022/05/26 06:02:37;;;;;;;22.88;6.20;;;;;;;14.11;87.18;101826.88;5112701;28;20031;-86
2022/05/26 06:05:05;;;;;;;25.03;6.50;;;;;;;14.14;86.09;101819.13;5116222;28;20035;-87
2022/05/26 06:07:30;;;;;;;24.27;7.20;;;;;;;14.24;86.14;101826.00;5116268;28;20089;-88
2022/05/26 06:09:58;;;;;;;25.40;6.80;;;;;;;14.30;85.49;101825.97;5116891;28;20031;-86
2022/05/26 06:12:23;;;;;;;23.40;6.63;;;;;;;14.50;85.37;101839.53;5116838;28;20103;-88
2022/05/26 06:14:53;;;;;;;28.30;7.15;;;;;;;14.54;84.80;101848.97;5116795;28;20032;-87
2022/05/26 06:17:19;;;;;;;30.40;6.80;;;;;;;14.51;84.78;101838.50;5099995;28;20039;-87
2022/05/26 06:19:45;;;;;;;19.77;6.97;;;;;;;14.53;84.38;101847.31;5116767;28;20032;-87
2022/05/26 06:22:18;;;;;;;27.63;8.60;;;;;;;14.51;84.38;101838.50;5116304;28;20020;-86
2022/05/26 06:24:44;;;;;;;27.80;7.82;;;;;;;14.56;84.63;101852.31;5116879;28;20085;-87
2022/05/26 06:29:58;;;;;;;27.48;9.15;;;;;;;14.45;84.50;101846.72;5118249;28;20387;-84
2022/05/26 06:37:55;;;;;;;29.05;10.02;;;;;;;14.64;83.70;101864.91;5117163;28;20470;-86
2022/05/26 06:40:25;;;;;;;28.80;10.20;;;;;;;14.78;82.49;101853.91;5116255;28;20055;-86
2022/05/26 06:42:51;;;;;;;27.47;9.17;;;;;;;14.80;82.01;101852.66;5099537;28;20475;-86
2022/05/26 06:45:24;;;;;;;20.70;9.85;;;;;;;14.87;80.89;101866.28;5116129;28;20038;-87
2022/05/26 06:47:49;;;;;;;22.13;9.37;;;;;;;14.98;81.03;101886.59;5081636;28;20046;-87
2022/05/26 06:50:27;;;;;;;;;;;;;;;;;;;;;
2022/05/26 06:53:06;;;;;;;26.23;10.95;;;;;;;15.07;80.37;101864.25;5117588;28;20398;-86
2022/05/26 06:55:32;;;;;;;28.37;10.77;;;;;;;15.11;80.32;101861.09;5115867;28;20043;-87
2022/05/26 06:57:57;;;;;;;22.42;10.27;;;;;;;15.18;80.17;101865.44;5115667;28;20035;-86
2022/05/26 07:00:26;;;;;;;22.17;10.10;;;;;;;15.30;79.32;101886.59;5115472;28;20024;-86
2022/05/26 07:02:52;;;;;;;28.08;10.23;;;;;;;15.31;79.09;101877.31;5098801;28;20078;-86
2022/05/26 07:05:18;;;;;;;23.67;9.30;;;;;;;15.38;77.42;101880.84;5098806;28;20063;-85
2022/05/26 07:07:43;;;;;;;22.57;9.17;;;;;;;15.33;76.36;101886.16;5098686;28;20293;-87
2022/05/26 07:10:13;;;;;;;21.38;9.30;;;;;;;15.41;76.57;101902.28;5115609;28;20059;-87
2022/05/26 07:12:39;;;;;;;26.83;9.27;;;;;;;15.47;75.98;101892.34;5115687;28;20031;-86
2022/05/26 07:15:08;;;;;;;22.98;8.98;;;;;;;15.56;75.76;101891.00;5116033;28;20026;-85
2022/05/26 07:17:35;;;;;;;23.08;8.90;;;;;;;15.67;75.50;101898.50;5098835;28;20241;-86
2022/05/26 07:20:01;;;;;;;17.88;8.85;;;;;;;15.75;75.45;101889.16;5115425;28;20032;-85
2022/05/26 07:22:32;;;;;;;26.97;9.00;;;;;;;15.82;74.42;101913.75;5115238;28;20032;-85
2022/05/26 07:24:58;;;;;;;24.10;8.85;;;;;;;15.81;73.67;101925.75;5116521;28;20028;-84
2022/05/26 07:27:23;;;;;;;19.10;8.52;;;;;;;15.77;73.60;101907.03;5115222;28;20434;-85
2022/05/26 07:29:49;;;;;;;23.33;9.23;;;;;;;15.82;73.18;101900.91;5097999;28;20099;-85
2022/05/26 07:32:14;;;;;;;21.80;9.17;;;;;;;15.92;73.07;101905.88;5116581;28;20032;-85
2022/05/26 07:34:40;;;;;;;18.67;8.15;;;;;;;16.09;72.25;101912.44;5115351;28;20115;-86
2022/05/26 07:42:36;;;;;;;20.40;8.27;;;;;;;16.46;70.48;101917.09;5101269;28;20039;-86
2022/05/26 07:45:07;;;;;;;18.85;8.63;;;;;;;16.75;70.80;101928.34;5115173;28;20047;-85
2022/05/26 07:47:32;;;;;;;24.30;9.27;;;;;;;16.67;69.36;101922.09;5114952;28;20031;-86
2022/05/26 07:49:58;;;;;;;17.38;9.57;;;;;;;16.72;69.97;101932.38;5114734;28;20417;-86
2022/05/26 07:52:26;;;;;;;19.83;8.60;;;;;;;16.71;70.53;101913.41;5116161;28;20032;-85
2022/05/26 07:55:01;;;;;;;18.20;8.55;;;;;;;16.71;69.81;101914.28;5114838;28;20031;-86
2022/05/26 07:57:28;;;;;;;12.80;7.50;;;;;;;17.05;68.83;101917.44;5116144;28;20031;-88
2022/05/26 07:59:58;;;;;;;16.87;8.20;;;;;;;17.14;68.46;101931.63;5115108;28;20031;-86
2022/05/26 08:02:26;;;;;;;18.60;8.75;;;;;;;16.94;68.60;101913.56;5114359;28;20105;-86
2022/05/26 08:04:51;;;;;;;16.42;8.07;;;;;;;16.86;68.55;101934.94;5090876;28;20040;-89
2022/05/26 08:07:22;;;;;;;16.70;8.13;;;;;;;16.75;68.48;101926.41;5093376;28;20046;-87
2022/05/26 08:09:49;;;;;;;18.92;8.02;;;;;;;16.88;67.98;101938.31;5078184;28;20028;-86
2022/05/26 08:12:22;;;;;;;14.93;8.70;;;;;;;16.78;68.81;101942.41;5093812;28;20050;-86
2022/05/26 08:14:47;;;;;;;18.67;8.68;;;;;;;16.51;69.03;101924.63;5095467;28;20047;-87
2022/05/26 08:17:14;;;;;;;14.80;8.37;;;;;;;16.40;69.03;101945.38;5094413;28;20028;-87
2022/05/26 08:19:43;;;;;;;13.07;8.27;;;;;;;16.20;70.50;101923.72;5093993;28;20024;-86
2022/05/26 08:22:08;;;;;;;18.05;8.70;;;;;;;16.34;70.17;101919.75;5094353;28;20553;-86
2022/05/26 08:24:40;;;;;;;15.23;8.90;;;;;;;16.64;69.60;101925.31;5093802;28;20098;-86
2022/05/26 08:27:05;;;;;;;18.05;7.97;;;;;;;16.80;67.60;101936.69;5095812;28;20032;-86
2022/05/26 08:29:34;;;;;;;15.25;8.00;;;;;;;16.76;66.37;101922.63;5085927;28;20034;-86
2022/05/26 08:32:00;;;;;;;13.87;8.70;;;;;;;16.72;66.92;101937.84;5076602;28;20093;-85
2022/05/26 08:34:25;;;;;;;16.23;8.55;;;;;;;16.87;67.64;101937.47;5094793;28;20024;-86
2022/05/26 08:36:51;;;;;;;12.07;6.60;;;;;;;17.08;65.60;101951.75;5075614;28;20059;-86
2022/05/26 08:39:25;;;;;;;9.50;5.67;;;;;;;16.96;64.84;101938.84;5093349;28;20034;-86
2022/05/26 08:41:53;;;;;;;13.93;6.77;;;;;;;16.98;66.07;101949.56;5094808;28;20297;-86
2022/05/26 08:44:26;;;;;;;15.35;8.38;;;;;;;17.10;65.92;101960.59;5089834;28;20036;-86
2022/05/26 08:47:01;;;;;;;17.17;9.07;;;;;;;17.06;65.62;101948.41;5093455;28;20036;-87
2022/05/26 08:49:42;;;;;;;18.48;11.82;;;;;;;17.31;66.15;101948.25;5093935;28;20036;-86
2022/05/26 08:52:13;;;;;;;21.67;15.10;;;;;;;17.57;65.83;101955.25;5094556;28;20028;-86
2022/05/26 08:54:56;;;;;;;19.90;14.60;;;;;;;17.69;65.12;101958.03;5093076;28;20472;-87
2022/05/26 08:57:33;;;;;;;20.10;12.18;;;;;;;17.65;64.19;101949.41;5093249;28;20058;-86
2022/05/26 09:00:13;;;;;;;16.08;9.90;;;;;;;17.72;62.82;101979.50;5092948;28;20070;-87
2022/05/26 09:02:53;;;;;;;21.65;10.60;;;;;;;17.47;63.27;101957.72;5098862;28;20495;-86
2022/05/26 09:05:21;;;;;;;20.42;11.85;;;;;;;17.37;63.86;101955.56;5099612;28;20066;-87
2022/05/26 09:13:41;;;;;;;23.70;14.02;;;;;;;17.85;62.73;101961.97;5109788;28;20055;-86
2022/05/26 09:16:18;;;;;;;;;;;;;;;;;;;;;
2022/05/26 09:22:53;;;;;;;14.30;8.73;;;;;;;18.15;59.44;101966.56;5018744;28;20037;-86
2022/05/26 09:26:08;;;;;;;13.02;9.15;;;;;;;18.24;59.78;101967.88;5050125;28;20100;-86
2022/05/26 09:28:49;;;;;;;12.82;9.18;;;;;;;18.22;60.17;101979.09;5071163;28;20067;-86
2022/05/26 09:31:27;;;;;;;18.63;12.25;;;;;;;18.29;59.00;101981.72;5056819;28;20028;-86
2022/05/26 09:34:08;;;;;;;17.17;11.25;;;;;;;18.44;59.96;101985.88;5092659;28;20391;-86
2022/05/26 09:37:12;;;;;;;20.50;12.10;;;;;;;18.61;59.37;101994.22;5092482;28;20048;-86
2022/05/26 09:39:42;;;;;;;18.27;11.68;;;;;;;18.61;57.32;101992.31;5071000;28;20036;-86
2022/05/26 09:42:39;;;;;;;13.05;11.00;;;;;;;18.51;58.19;102006.69;5054536;28;20032;-86
2022/05/26 09:45:14;;;;;;;12.77;8.43;;;;;;;18.41;56.57;101992.72;5058697;28;20070;-86
2022/05/26 09:47:53;;;;;;;14.13;9.13;;;;;;;18.37;57.42;101989.59;5071451;28;20071;-86
2022/05/26 09:50:52;;;;;;;14.40;9.23;;;;;;;18.50;57.24;102023.38;5092397;28;20054;-86
2022/05/26 09:53:34;;;;;;;14.45;9.63;;;;;;;18.19;58.21;101992.47;5089130;28;20391;-86
2022/05/26 09:56:02;;;;;;;22.00;12.68;;;;;;;18.04;58.64;101999.28;5093547;28;20031;-86
2022/05/26 09:58:41;;;;;;;14.98;10.90;;;;;;;18.02;58.66;101992.34;5075388;28;20123;-86
2022/05/26 10:01:09;;;;;;;17.55;11.57;;;;;;;18.46;58.00;102002.97;5092208;28;20475;-86
2022/05/26 10:03:53;;;;;;;15.07;9.30;;;;;;;18.76;55.72;101992.66;5092823;28;20511;-86
2022/05/26 10:06:27;;;;;;;15.10;10.18;;;;;;;18.98;54.79;102013.19;5092594;28;20076;-85
2022/05/26 10:09:22;;;;;;;16.92;10.02;;;;;;;19.05;55.82;101998.19;5091836;28;20040;-86
2022/05/26 10:11:56;;;;;;;15.63;9.30;;;;;;;19.39;54.79;102016.75;5076558;28;20032;-86
2022/05/26 10:14:25;;;;;;;11.68;7.85;;;;;;;19.49;51.74;102007.81;5092209;28;20586;-86
2022/05/26 10:17:08;;;;;;;13.10;8.60;;;;;;;19.66;52.36;102005.94;5091992;28;20028;-86
2022/05/26 10:19:51;;;;;;;16.23;9.50;;;;;;;19.63;52.43;102007.28;5093364;28;20036;-86
2022/05/26 10:22:56;;;;;;;11.38;9.57;;;;;;;19.48;53.97;101998.72;5091901;28;20364;-86
2022/05/26 10:25:27;;;;;;;15.38;10.07;;;;;;;19.58;54.54;102014.59;5091383;28;20093;-85
2022/05/26 10:28:15;;;;;;;13.75;9.18;;;;;;;19.59;53.71;102005.25;5093190;28;20149;-86
2022/05/26 10:31:09;;;;;;;12.43;8.77;;;;;;;20.03;53.21;102002.72;5093502;28;20067;-86
2022/05/26 10:34:12;;;;;;;11.07;8.48;;;;;;;20.29;52.21;101992.94;5091975;28;20478;-86
2022/05/26 10:37:00;;;;;;;15.73;10.23;;;;;;;20.04;51.60;102007.16;5091489;28;20056;-87
2022/05/26 10:40:03;;;;;;;15.18;9.82;;;;;;;20.04;52.05;102014.59;5091683;28;20032;-86
2022/05/26 10:42:33;;;;;;;13.32;8.88;;;;;;;20.32;51.96;101991.59;5093212;28;20031;-86
2022/05/26 10:45:15;;;;;;;11.63;8.67;;;;;;;20.48;50.82;101987.13;5091514;28;20028;-86
2022/05/26 10:48:10;;;;;;;10.85;8.40;;;;;;;20.73;50.46;102007.88;5093372;28;20028;-86
2022/05/26 10:50:50;;;;;;;13.70;8.57;;;;;;;20.93;49.21;101996.28;5094033;28;20075;-86
2022/05/26 10:53:28;;;;;;;10.27;7.90;;;;;;;21.16;47.99;102006.22;5095486;28;20024;-87
2022/05/26 10:56:14;;;;;;;11.02;7.57;;;;;;;21.31;48.72;101991.75;5095679;28;20039;-86
2022/05/26 10:58:54;;;;;;;11.13;7.23;;;;;;;21.02;50.36;102000.25;5095587;28;20119;-86
2022/05/26 11:01:45;;;;;;;10.88;7.18;;;;;;;20.73;51.04;102000.47;5095771;28;20024;-86
2022/05/26 11:04:32;;;;;;;16.30;6.78;;;;;;;20.99;50.28;102014.56;5095247;28;20495;-86
2022/05/26 11:07:05;;;;;;;13.77;6.47;;;;;;;21.16;49.72;102000.69;5096529;28;20536;-86
2022/05/26 11:10:06;;;;;;;9.82;6.28;;;;;;;21.61;49.81;101995.94;5094837;28;20044;-86
2022/05/26 11:12:39;;;;;;;15.87;6.90;;;;;;;22.31;45.01;102005.03;5073517;28;20036;-86
2022/05/26 11:18:19;;;;;;;11.45;7.47;;;;;;;21.41;46.75;102013.09;5096793;28;20491;-86
2022/05/26 11:20:53;;;;;;;12.93;8.30;;;;;;;21.09;48.07;101991.78;5094620;28;20044;-86
2022/05/26 11:23:21;;;;;;;13.70;7.97;;;;;;;21.79;47.09;102008.50;5096473;28;20024;-86
2022/05/26 11:25:56;;;;;;;13.30;8.47;;;;;;;21.47;46.82;102004.59;5094952;28;20031;-86
2022/05/26 11:28:53;;;;;;;12.85;7.75;;;;;;;20.85;48.42;102009.44;5096424;28;20115;-86
2022/05/26 11:37:40;;;;;;;12.88;8.18;;;;;;;19.53;50.69;101996.09;5096042;28;20459;-86
2022/05/26 11:40:10;;;;;;;15.23;7.80;;;;;;;19.23;51.60;101980.66;5094732;28;20059;-86
2022/05/26 11:42:49;;;;;;;11.35;7.70;;;;;;;18.96;52.63;101993.34;5094938;28;20119;-86
2022/05/26 11:45:27;;;;;;;11.18;7.25;;;;;;;19.00;53.19;102008.25;5094641;28;20035;-86
2022/05/26 11:47:56;;;;;;;10.23;7.18;;;;;;;19.23;52.84;101988.09;5094634;28;20028;-86
2022/05/26 11:50:24;;;;;;;11.10;7.38;;;;;;;19.94;51.93;101990.47;5094382;28;20476;-86
2022/05/26 11:52:52;;;;;;;12.07;8.33;;;;;;;20.84;49.18;101996.72;5094578;28;20028;-86
2022/05/26 11:55:48;;;;;;;11.63;7.80;;;;;;;22.62;46.07;101982.28;5094244;28;20066;-86
2022/05/26 11:58:40;;;;;;;14.38;8.10;;;;;;;23.50;44.39;101988.94;5095714;28;20023;-86
2022/05/26 12:01:23;;;;;;;12.10;7.22;;;;;;;23.34;44.15;101974.22;5095437;28;20024;-86
2022/05/26 12:04:05;;;;;;;11.60;7.10;;;;;;;24.10;42.62;101983.69;5095754;28;20032;-86
2022/05/26 12:06:37;;;;;;;11.13;5.67;;;;;;;25.59;39.15;101974.72;5094260;28;20073;-86
2022/05/26 12:09:19;;;;;;;11.52;5.03;;;;;;;26.75;36.95;101972.16;5095554;28;20030;-87
2022/05/26 12:11:55;;;;;;;11.57;5.20;;;;;;;26.39;35.84;101967.81;5094519;28;20027;-84
2022/05/26 12:15:03;;;;;;;9.10;4.70;;;;;;;24.97;37.87;101966.75;5095207;28;20109;-84
2022/05/26 12:17:53;;;;;;;9.80;4.32;;;;;;;23.83;41.64;101982.84;5052848;28;20033;-87
2022/05/26 12:20:21;;;;;;;9.73;3.77;;;;;;;23.76;40.87;101982.28;5091685;28;20039;-84
2022/05/26 12:22:49;;;;;;;10.90;4.18;;;;;;;24.69;39.59;101966.34;5093801;28;20028;-84
2022/05/26 12:25:14;;;;;;;8.73;3.53;;;;;;;25.71;37.01;101954.88;5093636;28;20471;-84
2022/05/26 12:27:51;;;;;;;10.87;4.80;;;;;;;25.98;36.50;101976.56;5094894;28;20035;-84
2022/05/26 12:30:44;;;;;;;9.32;4.80;;;;;;;24.30;39.72;101977.25;5093677;28;20035;-84
2022/05/26 12:33:24;;;;;;;8.60;4.60;;;;;;;24.02;40.50;101975.94;5094808;28;20048;-84
2022/05/26 12:36:14;;;;;;;11.67;3.83;;;;;;;24.82;39.11;101944.66;5094922;28;20085;-84
2022/05/26 12:38:40;;;;;;;9.23;3.83;;;;;;;25.48;38.23;101950.91;5093951;28;20134;-84
2022/05/26 12:41:14;;;;;;;8.93;3.70;;;;;;;25.92;36.58;101944.38;5094903;28;20479;-84
2022/05/26 12:43:48;;;;;;;6.50;3.50;;;;;;;24.89;37.96;101950.69;5094408;28;20480;-84